sensor_id;sensor_type;location;lat;lon;timestamp;pressure;altitude;pressure_sealevel;temperature;humidity
50302;BME280;36550;50.472;19.744;2023-01-31T00:00:20;97174.55;;;1.44;88.43
50302;BME280;36550;50.472;19.744;2023-01-31T00:03:04;97177.71;;;1.43;88.29
50302;BME280;36550;50.472;19.744;2023-01-31T00:05:48;97178.67;;;1.40;88.34
50302;BME280;36550;50.472;19.744;2023-01-31T00:08:31;97183.59;;;1.41;88.25
50302;BME280;36550;50.472;19.744;2023-01-31T00:11:17;97178.27;;;1.41;88.13
50302;BME280;36550;50.472;19.744;2023-01-31T00:14:03;97185.63;;;1.41;88.01
50302;BME280;36550;50.472;19.744;2023-01-31T00:16:48;97176.95;;;1.40;88.05
50302;BME280;36550;50.472;19.744;2023-01-31T00:19:32;97185.34;;;1.39;88.05
50302;BME280;36550;50.472;19.744;2023-01-31T00:22:16;97197.20;;;1.41;87.96
50302;BME280;36550;50.472;19.744;2023-01-31T00:25:00;97199.39;;;1.43;87.92
50302;BME280;36550;50.472;19.744;2023-01-31T00:27:43;97201.98;;;1.44;87.91
50302;BME280;36550;50.472;19.744;2023-01-31T00:30:27;97202.08;;;1.45;87.94
50302;BME280;36550;50.472;19.744;2023-01-31T00:33:11;97202.70;;;1.48;87.94
50302;BME280;36550;50.472;19.744;2023-01-31T00:35:55;97199.41;;;1.49;87.82
50302;BME280;36550;50.472;19.744;2023-01-31T00:38:39;97202.59;;;1.47;87.91
50302;BME280;36550;50.472;19.744;2023-01-31T00:41:26;97199.84;;;1.47;87.96
50302;BME280;36550;50.472;19.744;2023-01-31T00:44:11;97208.51;;;1.44;88.02
50302;BME280;36550;50.472;19.744;2023-01-31T00:46:55;97216.41;;;1.43;88.16
50302;BME280;36550;50.472;19.744;2023-01-31T00:49:39;97220.45;;;1.45;88.13
50302;BME280;36550;50.472;19.744;2023-01-31T00:52:23;97221.31;;;1.46;88.20
50302;BME280;36550;50.472;19.744;2023-01-31T00:55:07;97223.39;;;1.48;88.16
50302;BME280;36550;50.472;19.744;2023-01-31T00:57:51;97226.77;;;1.47;88.13
50302;BME280;36550;50.472;19.744;2023-01-31T01:00:35;97231.77;;;1.47;88.17
50302;BME280;36550;50.472;19.744;2023-01-31T01:03:19;97236.60;;;1.50;88.05
50302;BME280;36550;50.472;19.744;2023-01-31T01:06:04;97240.85;;;1.47;88.12
50302;BME280;36550;50.472;19.744;2023-01-31T01:08:48;97238.10;;;1.46;88.00
50302;BME280;36550;50.472;19.744;2023-01-31T01:11:33;97236.22;;;1.39;88.27
50302;BME280;36550;50.472;19.744;2023-01-31T01:14:17;97243.95;;;1.35;88.32
50302;BME280;36550;50.472;19.744;2023-01-31T01:17:01;97244.63;;;1.31;88.54
50302;BME280;36550;50.472;19.744;2023-01-31T01:19:45;97241.88;;;1.30;88.72
50302;BME280;36550;50.472;19.744;2023-01-31T01:22:30;97245.54;;;1.28;89.10
50302;BME280;36550;50.472;19.744;2023-01-31T01:25:14;97246.96;;;1.29;89.17
50302;BME280;36550;50.472;19.744;2023-01-31T01:27:57;97253.92;;;1.31;89.08
50302;BME280;36550;50.472;19.744;2023-01-31T01:30:41;97258.94;;;1.31;89.20
50302;BME280;36550;50.472;19.744;2023-01-31T01:33:26;97270.15;;;1.32;89.22
50302;BME280;36550;50.472;19.744;2023-01-31T01:36:12;97273.23;;;1.34;89.12
50302;BME280;36550;50.472;19.744;2023-01-31T01:38:58;97276.77;;;1.36;89.07
50302;BME280;36550;50.472;19.744;2023-01-31T01:41:42;97283.37;;;1.35;89.05
50302;BME280;36550;50.472;19.744;2023-01-31T01:44:49;97282.45;;;1.36;89.11
50302;BME280;36550;50.472;19.744;2023-01-31T01:50:35;97290.63;;;1.38;88.98
50302;BME280;36550;50.472;19.744;2023-01-31T01:53:22;97290.95;;;1.40;88.87
50302;BME280;36550;50.472;19.744;2023-01-31T01:56:30;97293.20;;;1.39;88.85
50302;BME280;36550;50.472;19.744;2023-01-31T01:59:21;97300.01;;;1.38;88.69
50302;BME280;36550;50.472;19.744;2023-01-31T02:02:07;97305.14;;;1.39;88.76
50302;BME280;36550;50.472;19.744;2023-01-31T02:04:51;97306.90;;;1.42;88.74
50302;BME280;36550;50.472;19.744;2023-01-31T02:07:35;97310.05;;;1.45;88.53
50302;BME280;36550;50.472;19.744;2023-01-31T02:10:23;97310.65;;;1.45;88.61
50302;BME280;36550;50.472;19.744;2023-01-31T02:13:10;97313.55;;;1.42;88.59
50302;BME280;36550;50.472;19.744;2023-01-31T02:15:55;97314.55;;;1.43;88.62
50302;BME280;36550;50.472;19.744;2023-01-31T02:18:39;97319.83;;;1.43;88.44
50302;BME280;36550;50.472;19.744;2023-01-31T02:34:41;97329.50;;;1.43;88.21
50302;BME280;36550;50.472;19.744;2023-01-31T02:37:39;97327.34;;;1.42;88.20
50302;BME280;36550;50.472;19.744;2023-01-31T02:41:14;97324.64;;;1.42;88.06
50302;BME280;36550;50.472;19.744;2023-01-31T02:48:01;97340.15;;;1.42;87.92
50302;BME280;36550;50.472;19.744;2023-01-31T02:51:12;97342.11;;;1.42;87.80
50302;BME280;36550;50.472;19.744;2023-01-31T02:54:07;97341.59;;;1.43;87.72
50302;BME280;36550;50.472;19.744;2023-01-31T02:56:52;97340.05;;;1.40;87.60
50302;BME280;36550;50.472;19.744;2023-01-31T02:59:36;97346.34;;;1.37;87.42
50302;BME280;36550;50.472;19.744;2023-01-31T03:02:22;97348.44;;;1.36;87.26
50302;BME280;36550;50.472;19.744;2023-01-31T03:05:13;97349.44;;;1.36;87.16
50302;BME280;36550;50.472;19.744;2023-01-31T03:07:59;97352.98;;;1.37;86.88
50302;BME280;36550;50.472;19.744;2023-01-31T03:13:51;97355.30;;;1.35;85.92
50302;BME280;36550;50.472;19.744;2023-01-31T03:16:49;97366.11;;;1.37;85.89
50302;BME280;36550;50.472;19.744;2023-01-31T03:23:00;97371.88;;;1.38;84.51
50302;BME280;36550;50.472;19.744;2023-01-31T03:25:45;97372.44;;;1.38;84.56
50302;BME280;36550;50.472;19.744;2023-01-31T03:28:32;97375.13;;;1.36;84.42
50302;BME280;36550;50.472;19.744;2023-01-31T03:31:35;97383.11;;;1.39;84.06
50302;BME280;36550;50.472;19.744;2023-01-31T03:34:21;97386.63;;;1.40;83.78
50302;BME280;36550;50.472;19.744;2023-01-31T03:40:12;97392.44;;;1.37;83.42
50302;BME280;36550;50.472;19.744;2023-01-31T03:43:29;97402.53;;;1.38;82.78
50302;BME280;36550;50.472;19.744;2023-01-31T03:46:19;97407.03;;;1.39;82.21
50302;BME280;36550;50.472;19.744;2023-01-31T03:49:09;97404.89;;;1.40;81.95
50302;BME280;36550;50.472;19.744;2023-01-31T03:51:59;97407.23;;;1.40;82.13
50302;BME280;36550;50.472;19.744;2023-01-31T03:54:52;97409.03;;;1.40;81.80
50302;BME280;36550;50.472;19.744;2023-01-31T03:57:37;97416.13;;;1.42;81.97
50302;BME280;36550;50.472;19.744;2023-01-31T04:00:24;97416.77;;;1.44;82.16
50302;BME280;36550;50.472;19.744;2023-01-31T04:03:15;97427.25;;;1.46;82.77
50302;BME280;36550;50.472;19.744;2023-01-31T04:06:01;97432.86;;;1.45;82.80
50302;BME280;36550;50.472;19.744;2023-01-31T04:08:45;97429.00;;;1.45;82.80
50302;BME280;36550;50.472;19.744;2023-01-31T04:11:36;97436.48;;;1.46;82.99
50302;BME280;36550;50.472;19.744;2023-01-31T04:14:21;97441.58;;;1.48;82.90
50302;BME280;36550;50.472;19.744;2023-01-31T04:17:05;97445.35;;;1.48;82.89
50302;BME280;36550;50.472;19.744;2023-01-31T04:19:49;97451.59;;;1.47;82.84
50302;BME280;36550;50.472;19.744;2023-01-31T04:22:33;97461.24;;;1.44;82.92
50302;BME280;36550;50.472;19.744;2023-01-31T04:25:17;97459.80;;;1.43;82.76
50302;BME280;36550;50.472;19.744;2023-01-31T04:28:01;97462.59;;;1.44;82.74
50302;BME280;36550;50.472;19.744;2023-01-31T04:30:51;97463.16;;;1.44;82.41
50302;BME280;36550;50.472;19.744;2023-01-31T04:33:34;97469.55;;;1.44;82.42
50302;BME280;36550;50.472;19.744;2023-01-31T04:36:18;97478.43;;;1.44;82.74
50302;BME280;36550;50.472;19.744;2023-01-31T04:39:02;97482.36;;;1.43;82.71
50302;BME280;36550;50.472;19.744;2023-01-31T04:41:46;97487.46;;;1.44;82.69
50302;BME280;36550;50.472;19.744;2023-01-31T04:44:31;97490.30;;;1.46;82.70
50302;BME280;36550;50.472;19.744;2023-01-31T04:47:15;97495.87;;;1.48;82.76
50302;BME280;36550;50.472;19.744;2023-01-31T04:49:59;97501.36;;;1.48;82.70
50302;BME280;36550;50.472;19.744;2023-01-31T04:52:43;97499.09;;;1.47;82.74
50302;BME280;36550;50.472;19.744;2023-01-31T04:55:27;97506.27;;;1.46;82.96
50302;BME280;36550;50.472;19.744;2023-01-31T04:58:11;97509.73;;;1.44;82.86
50302;BME280;36550;50.472;19.744;2023-01-31T05:00:55;97519.23;;;1.42;82.68
50302;BME280;36550;50.472;19.744;2023-01-31T05:03:39;97521.98;;;1.39;82.51
50302;BME280;36550;50.472;19.744;2023-01-31T05:06:23;97522.88;;;1.37;82.46
50302;BME280;36550;50.472;19.744;2023-01-31T05:09:07;97519.77;;;1.36;82.70
50302;BME280;36550;50.472;19.744;2023-01-31T05:11:51;97527.77;;;1.34;82.92
50302;BME280;36550;50.472;19.744;2023-01-31T05:14:36;97531.25;;;1.32;83.05
50302;BME280;36550;50.472;19.744;2023-01-31T05:17:19;97533.71;;;1.32;83.10
50302;BME280;36550;50.472;19.744;2023-01-31T05:20:11;97540.55;;;1.32;83.14
50302;BME280;36550;50.472;19.744;2023-01-31T05:22:55;97544.85;;;1.32;83.24
50302;BME280;36550;50.472;19.744;2023-01-31T05:25:39;97545.20;;;1.31;83.09
50302;BME280;36550;50.472;19.744;2023-01-31T05:28:24;97544.36;;;1.26;83.12
50302;BME280;36550;50.472;19.744;2023-01-31T05:31:11;97551.85;;;1.23;82.95
50302;BME280;36550;50.472;19.744;2023-01-31T05:33:56;97558.95;;;1.21;82.73
50302;BME280;36550;50.472;19.744;2023-01-31T05:36:43;97563.79;;;1.20;82.37
50302;BME280;36550;50.472;19.744;2023-01-31T05:39:27;97561.94;;;1.18;82.34
50302;BME280;36550;50.472;19.744;2023-01-31T05:42:11;97569.05;;;1.16;82.42
50302;BME280;36550;50.472;19.744;2023-01-31T05:44:55;97576.40;;;1.12;82.11
50302;BME280;36550;50.472;19.744;2023-01-31T05:47:39;97581.94;;;1.13;82.18
50302;BME280;36550;50.472;19.744;2023-01-31T05:50:23;97587.37;;;1.13;82.10
50302;BME280;36550;50.472;19.744;2023-01-31T05:53:06;97585.80;;;1.11;82.14
50302;BME280;36550;50.472;19.744;2023-01-31T05:55:51;97593.51;;;1.09;82.41
50302;BME280;36550;50.472;19.744;2023-01-31T05:58:37;97595.59;;;1.07;82.50
50302;BME280;36550;50.472;19.744;2023-01-31T06:01:23;97602.13;;;1.12;82.60
50302;BME280;36550;50.472;19.744;2023-01-31T06:04:09;97610.77;;;1.10;82.43
50302;BME280;36550;50.472;19.744;2023-01-31T06:06:53;97616.86;;;1.08;82.28
50302;BME280;36550;50.472;19.744;2023-01-31T06:09:37;97626.15;;;1.05;82.18
50302;BME280;36550;50.472;19.744;2023-01-31T06:12:23;97632.11;;;1.05;82.17
50302;BME280;36550;50.472;19.744;2023-01-31T06:15:09;97636.67;;;1.05;81.87
50302;BME280;36550;50.472;19.744;2023-01-31T06:17:53;97643.44;;;1.06;81.80
50302;BME280;36550;50.472;19.744;2023-01-31T06:20:37;97651.11;;;1.06;81.83
50302;BME280;36550;50.472;19.744;2023-01-31T06:23:21;97655.34;;;1.03;81.78
50302;BME280;36550;50.472;19.744;2023-01-31T06:26:05;97660.17;;;1.06;81.78
50302;BME280;36550;50.472;19.744;2023-01-31T06:28:49;97665.17;;;1.09;81.78
50302;BME280;36550;50.472;19.744;2023-01-31T06:31:33;97671.99;;;1.11;81.72
50302;BME280;36550;50.472;19.744;2023-01-31T06:34:17;97679.14;;;1.09;81.41
50302;BME280;36550;50.472;19.744;2023-01-31T06:37:00;97682.90;;;1.07;81.43
50302;BME280;36550;50.472;19.744;2023-01-31T06:39:44;97692.16;;;1.11;81.68
50302;BME280;36550;50.472;19.744;2023-01-31T06:42:28;97694.55;;;1.14;81.47
50302;BME280;36550;50.472;19.744;2023-01-31T06:45:12;97696.78;;;1.19;81.67
50302;BME280;36550;50.472;19.744;2023-01-31T06:47:56;97701.42;;;1.20;81.75
50302;BME280;36550;50.472;19.744;2023-01-31T06:50:40;97706.83;;;1.22;81.66
50302;BME280;36550;50.472;19.744;2023-01-31T06:53:24;97709.60;;;1.24;81.69
50302;BME280;36550;50.472;19.744;2023-01-31T06:56:08;97714.23;;;1.29;81.59
50302;BME280;36550;50.472;19.744;2023-01-31T06:58:52;97723.30;;;1.32;81.41
50302;BME280;36550;50.472;19.744;2023-01-31T07:01:36;97726.10;;;1.30;81.08
50302;BME280;36550;50.472;19.744;2023-01-31T07:04:20;97733.39;;;1.31;81.25
50302;BME280;36550;50.472;19.744;2023-01-31T07:07:04;97730.10;;;1.32;81.38
50302;BME280;36550;50.472;19.744;2023-01-31T07:09:48;97739.61;;;1.37;81.23
50302;BME280;36550;50.472;19.744;2023-01-31T07:12:32;97741.19;;;1.42;81.49
50302;BME280;36550;50.472;19.744;2023-01-31T07:15:17;97743.35;;;1.47;81.59
50302;BME280;36550;50.472;19.744;2023-01-31T07:18:01;97746.48;;;1.50;81.74
50302;BME280;36550;50.472;19.744;2023-01-31T07:20:45;97749.41;;;1.51;81.88
50302;BME280;36550;50.472;19.744;2023-01-31T07:23:29;97752.81;;;1.55;81.98
50302;BME280;36550;50.472;19.744;2023-01-31T07:26:13;97754.79;;;1.60;81.95
50302;BME280;36550;50.472;19.744;2023-01-31T07:28:57;97754.45;;;1.63;81.90
50302;BME280;36550;50.472;19.744;2023-01-31T07:31:41;97762.15;;;1.68;81.93
50302;BME280;36550;50.472;19.744;2023-01-31T07:34:25;97763.34;;;1.68;81.88
50302;BME280;36550;50.472;19.744;2023-01-31T07:37:08;97768.59;;;1.71;81.97
50302;BME280;36550;50.472;19.744;2023-01-31T07:39:52;97773.91;;;1.79;82.01
50302;BME280;36550;50.472;19.744;2023-01-31T07:42:36;97779.03;;;1.84;81.90
50302;BME280;36550;50.472;19.744;2023-01-31T07:45:20;97775.67;;;1.86;81.84
50302;BME280;36550;50.472;19.744;2023-01-31T07:48:04;97777.84;;;1.88;81.81
50302;BME280;36550;50.472;19.744;2023-01-31T07:50:50;97779.52;;;1.90;81.68
50302;BME280;36550;50.472;19.744;2023-01-31T07:53:37;97780.23;;;1.94;81.37
50302;BME280;36550;50.472;19.744;2023-01-31T07:56:25;97778.46;;;1.96;80.96
50302;BME280;36550;50.472;19.744;2023-01-31T07:59:09;97777.58;;;1.99;81.06
50302;BME280;36550;50.472;19.744;2023-01-31T08:01:53;97784.51;;;1.99;81.07
50302;BME280;36550;50.472;19.744;2023-01-31T08:04:55;97788.23;;;2.02;81.13
50302;BME280;36550;50.472;19.744;2023-01-31T08:07:39;97792.21;;;2.02;81.00
50302;BME280;36550;50.472;19.744;2023-01-31T08:10:23;97795.45;;;2.04;80.98
50302;BME280;36550;50.472;19.744;2023-01-31T08:13:07;97800.04;;;2.03;80.68
50302;BME280;36550;50.472;19.744;2023-01-31T08:15:54;97802.25;;;2.02;80.51
50302;BME280;36550;50.472;19.744;2023-01-31T08:18:38;97804.65;;;2.06;80.45
50302;BME280;36550;50.472;19.744;2023-01-31T08:21:22;97810.22;;;2.14;80.60
50302;BME280;36550;50.472;19.744;2023-01-31T08:24:06;97815.16;;;2.24;80.59
50302;BME280;36550;50.472;19.744;2023-01-31T08:26:50;97823.11;;;2.31;80.46
50302;BME280;36550;50.472;19.744;2023-01-31T08:29:35;97826.47;;;2.37;80.39
50302;BME280;36550;50.472;19.744;2023-01-31T08:32:19;97829.92;;;2.40;79.94
50302;BME280;36550;50.472;19.744;2023-01-31T08:35:03;97836.36;;;2.48;80.15
50302;BME280;36550;50.472;19.744;2023-01-31T08:37:47;97836.03;;;2.55;80.03
50302;BME280;36550;50.472;19.744;2023-01-31T08:40:31;97843.50;;;2.58;80.04
50302;BME280;36550;50.472;19.744;2023-01-31T08:43:15;97843.88;;;2.59;79.58
50302;BME280;36550;50.472;19.744;2023-01-31T08:45:59;97847.23;;;2.60;79.09
50302;BME280;36550;50.472;19.744;2023-01-31T08:48:43;97849.11;;;2.61;78.97
50302;BME280;36550;50.472;19.744;2023-01-31T08:51:27;97851.40;;;2.63;78.34
50302;BME280;36550;50.472;19.744;2023-01-31T08:54:12;97848.42;;;2.64;78.36
50302;BME280;36550;50.472;19.744;2023-01-31T08:56:56;97852.86;;;2.66;78.57
50302;BME280;36550;50.472;19.744;2023-01-31T08:59:40;97855.71;;;2.71;78.84
50302;BME280;36550;50.472;19.744;2023-01-31T09:02:24;97860.94;;;2.76;79.00
50302;BME280;36550;50.472;19.744;2023-01-31T09:05:07;97862.70;;;2.81;78.95
50302;BME280;36550;50.472;19.744;2023-01-31T09:07:51;97864.94;;;2.93;79.13
50302;BME280;36550;50.472;19.744;2023-01-31T09:10:36;97868.71;;;2.97;78.37
50302;BME280;36550;50.472;19.744;2023-01-31T09:13:19;97867.73;;;3.05;78.81
50302;BME280;36550;50.472;19.744;2023-01-31T09:16:09;97866.87;;;3.13;78.60
50302;BME280;36550;50.472;19.744;2023-01-31T09:18:53;97871.20;;;3.22;78.64
50302;BME280;36550;50.472;19.744;2023-01-31T09:21:39;97874.13;;;3.26;77.91
50302;BME280;36550;50.472;19.744;2023-01-31T09:24:22;97874.89;;;3.34;77.88
50302;BME280;36550;50.472;19.744;2023-01-31T09:27:06;97872.73;;;3.39;77.77
50302;BME280;36550;50.472;19.744;2023-01-31T09:29:50;97873.27;;;3.42;77.90
50302;BME280;36550;50.472;19.744;2023-01-31T09:32:34;97871.63;;;3.46;77.22
50302;BME280;36550;50.472;19.744;2023-01-31T09:35:19;97880.04;;;3.47;76.24
50302;BME280;36550;50.472;19.744;2023-01-31T09:38:04;97881.40;;;3.49;76.34
50302;BME280;36550;50.472;19.744;2023-01-31T09:40:48;97884.96;;;3.51;76.24
50302;BME280;36550;50.472;19.744;2023-01-31T09:43:38;97883.22;;;3.46;76.24
50302;BME280;36550;50.472;19.744;2023-01-31T09:46:27;97885.49;;;3.46;76.42
50302;BME280;36550;50.472;19.744;2023-01-31T09:49:23;97886.11;;;3.40;76.06
50302;BME280;36550;50.472;19.744;2023-01-31T09:52:09;97885.63;;;3.41;76.56
50302;BME280;36550;50.472;19.744;2023-01-31T09:54:54;97887.98;;;3.40;76.02
50302;BME280;36550;50.472;19.744;2023-01-31T10:09:44;97888.23;;;3.27;75.97
50302;BME280;36550;50.472;19.744;2023-01-31T10:12:39;97885.23;;;3.29;76.23
50302;BME280;36550;50.472;19.744;2023-01-31T10:15:37;97888.65;;;3.33;75.94
50302;BME280;36550;50.472;19.744;2023-01-31T10:18:36;97888.20;;;3.30;75.62
50302;BME280;36550;50.472;19.744;2023-01-31T10:21:29;97889.66;;;3.32;75.98
50302;BME280;36550;50.472;19.744;2023-01-31T10:24:28;97885.71;;;3.35;76.24
50302;BME280;36550;50.472;19.744;2023-01-31T10:27:35;97886.70;;;3.41;75.96
50302;BME280;36550;50.472;19.744;2023-01-31T10:30:27;97885.13;;;3.42;75.33
50302;BME280;36550;50.472;19.744;2023-01-31T10:33:22;97888.65;;;3.46;74.89
50302;BME280;36550;50.472;19.744;2023-01-31T10:36:23;97890.83;;;3.56;75.09
50302;BME280;36550;50.472;19.744;2023-01-31T10:39:29;97895.86;;;3.67;74.50
50302;BME280;36550;50.472;19.744;2023-01-31T10:42:31;97897.52;;;3.72;74.24
50302;BME280;36550;50.472;19.744;2023-01-31T10:45:20;97899.44;;;3.77;73.97
50302;BME280;36550;50.472;19.744;2023-01-31T10:54:16;97888.61;;;3.91;72.75
50302;BME280;36550;50.472;19.744;2023-01-31T10:57:03;97889.35;;;3.96;72.67
50302;BME280;36550;50.472;19.744;2023-01-31T10:59:48;97884.52;;;3.99;73.03
50302;BME280;36550;50.472;19.744;2023-01-31T11:02:33;97882.33;;;3.98;71.73
50302;BME280;36550;50.472;19.744;2023-01-31T11:05:22;97878.84;;;3.93;71.98
50302;BME280;36550;50.472;19.744;2023-01-31T11:11:28;97878.36;;;3.84;71.16
50302;BME280;36550;50.472;19.744;2023-01-31T11:14:17;97872.70;;;3.84;70.82
50302;BME280;36550;50.472;19.744;2023-01-31T11:17:22;97873.02;;;3.85;70.44
50302;BME280;36550;50.472;19.744;2023-01-31T11:20:23;97868.31;;;3.77;69.12
50302;BME280;36550;50.472;19.744;2023-01-31T11:23:12;97878.64;;;3.66;68.47
50302;BME280;36550;50.472;19.744;2023-01-31T11:25:57;97867.30;;;3.62;68.60
50302;BME280;36550;50.472;19.744;2023-01-31T11:28:49;97867.53;;;3.62;69.84
50302;BME280;36550;50.472;19.744;2023-01-31T11:31:39;97866.19;;;3.65;70.45
50302;BME280;36550;50.472;19.744;2023-01-31T11:34:26;97865.65;;;3.58;69.55
50302;BME280;36550;50.472;19.744;2023-01-31T11:37:15;97864.90;;;3.52;69.98
50302;BME280;36550;50.472;19.744;2023-01-31T11:45:45;97866.40;;;3.43;70.08
50302;BME280;36550;50.472;19.744;2023-01-31T11:48:41;97868.45;;;3.41;69.57
50302;BME280;36550;50.472;19.744;2023-01-31T11:51:29;97867.98;;;3.40;69.54
50302;BME280;36550;50.472;19.744;2023-01-31T11:54:21;97868.48;;;3.47;70.62
50302;BME280;36550;50.472;19.744;2023-01-31T11:57:15;97869.69;;;3.55;70.88
50302;BME280;36550;50.472;19.744;2023-01-31T12:00:05;97860.19;;;3.62;70.91
50302;BME280;36550;50.472;19.744;2023-01-31T12:02:58;97860.11;;;3.64;71.15
50302;BME280;36550;50.472;19.744;2023-01-31T12:05:45;97864.16;;;3.66;71.12
50302;BME280;36550;50.472;19.744;2023-01-31T12:08:38;97860.85;;;3.68;70.87
50302;BME280;36550;50.472;19.744;2023-01-31T12:11:31;97856.38;;;3.66;70.41
50302;BME280;36550;50.472;19.744;2023-01-31T12:14:16;97850.05;;;3.65;70.63
50302;BME280;36550;50.472;19.744;2023-01-31T12:17:02;97852.52;;;3.61;70.42
50302;BME280;36550;50.472;19.744;2023-01-31T12:20:06;97857.00;;;3.54;69.93
50302;BME280;36550;50.472;19.744;2023-01-31T12:26:07;97852.61;;;3.39;70.06
50302;BME280;36550;50.472;19.744;2023-01-31T12:32:11;97849.11;;;3.40;70.19
50302;BME280;36550;50.472;19.744;2023-01-31T12:35:12;97852.89;;;3.36;69.57
50302;BME280;36550;50.472;19.744;2023-01-31T12:44:06;97835.73;;;3.46;70.64
50302;BME280;36550;50.472;19.744;2023-01-31T12:47:30;97833.75;;;3.49;70.66
50302;BME280;36550;50.472;19.744;2023-01-31T12:50:27;97825.61;;;3.52;69.66
50302;BME280;36550;50.472;19.744;2023-01-31T13:00:05;97819.02;;;3.84;69.06
50302;BME280;36550;50.472;19.744;2023-01-31T13:03:08;97811.46;;;3.82;67.88
50302;BME280;36550;50.472;19.744;2023-01-31T13:06:05;97813.66;;;3.67;64.79
50302;BME280;36550;50.472;19.744;2023-01-31T13:09:03;97809.05;;;3.62;66.07
50302;BME280;36550;50.472;19.744;2023-01-31T13:12:12;97807.24;;;3.58;66.88
50302;BME280;36550;50.472;19.744;2023-01-31T13:18:02;97808.80;;;3.50;67.60
50302;BME280;36550;50.472;19.744;2023-01-31T13:20:52;97806.38;;;3.43;66.95
50302;BME280;36550;50.472;19.744;2023-01-31T13:23:44;97804.93;;;3.39;67.94
50302;BME280;36550;50.472;19.744;2023-01-31T13:26:35;97809.42;;;3.42;68.23
50302;BME280;36550;50.472;19.744;2023-01-31T13:29:25;97812.09;;;3.44;68.63
50302;BME280;36550;50.472;19.744;2023-01-31T13:35:15;97819.79;;;3.53;69.05
50302;BME280;36550;50.472;19.744;2023-01-31T13:38:10;97818.77;;;3.56;69.45
50302;BME280;36550;50.472;19.744;2023-01-31T13:40:56;97822.02;;;3.60;69.65
50302;BME280;36550;50.472;19.744;2023-01-31T13:43:40;97818.40;;;3.64;69.85
50302;BME280;36550;50.472;19.744;2023-01-31T13:46:54;97813.65;;;3.66;69.74
50302;BME280;36550;50.472;19.744;2023-01-31T13:49:49;97807.43;;;3.58;68.84
50302;BME280;36550;50.472;19.744;2023-01-31T13:52:40;97807.17;;;3.52;69.20
50302;BME280;36550;50.472;19.744;2023-01-31T13:55:35;97804.66;;;3.41;68.57
50302;BME280;36550;50.472;19.744;2023-01-31T13:58:22;97802.48;;;3.34;68.89
50302;BME280;36550;50.472;19.744;2023-01-31T14:01:12;97804.20;;;3.28;69.23
50302;BME280;36550;50.472;19.744;2023-01-31T14:12:35;97806.61;;;3.15;69.35
50302;BME280;36550;50.472;19.744;2023-01-31T14:15:45;97804.11;;;3.11;69.57
50302;BME280;36550;50.472;19.744;2023-01-31T14:18:40;97795.80;;;3.03;69.27
50302;BME280;36550;50.472;19.744;2023-01-31T14:24:18;97790.63;;;2.88;69.74
50302;BME280;36550;50.472;19.744;2023-01-31T14:27:11;97789.63;;;2.81;69.10
50302;BME280;36550;50.472;19.744;2023-01-31T14:32:57;97781.68;;;2.74;69.91
50302;BME280;36550;50.472;19.744;2023-01-31T14:39:17;97767.71;;;2.66;70.19
50302;BME280;36550;50.472;19.744;2023-01-31T14:42:32;97770.05;;;2.64;70.46
50302;BME280;36550;50.472;19.744;2023-01-31T14:54:47;97774.23;;;2.56;71.06
50302;BME280;36550;50.472;19.744;2023-01-31T14:57:42;97768.78;;;2.59;71.28
50302;BME280;36550;50.472;19.744;2023-01-31T15:00:37;97760.39;;;2.58;71.50
50302;BME280;36550;50.472;19.744;2023-01-31T15:06:35;97761.19;;;2.51;71.62
50302;BME280;36550;50.472;19.744;2023-01-31T15:15:37;97764.95;;;2.30;71.94
50302;BME280;36550;50.472;19.744;2023-01-31T15:18:23;97758.08;;;2.22;71.93
50302;BME280;36550;50.472;19.744;2023-01-31T15:21:09;97758.92;;;2.14;72.45
50302;BME280;36550;50.472;19.744;2023-01-31T15:23:54;97756.17;;;2.11;72.70
50302;BME280;36550;50.472;19.744;2023-01-31T15:26:38;97752.23;;;2.11;72.88
50302;BME280;36550;50.472;19.744;2023-01-31T15:29:33;97750.28;;;2.10;72.99
50302;BME280;36550;50.472;19.744;2023-01-31T15:33:13;97747.67;;;2.08;73.28
50302;BME280;36550;50.472;19.744;2023-01-31T15:36:02;97741.45;;;2.01;73.72
50302;BME280;36550;50.472;19.744;2023-01-31T15:38:52;97743.79;;;1.96;73.79
50302;BME280;36550;50.472;19.744;2023-01-31T15:41:42;97740.74;;;1.89;73.86
50302;BME280;36550;50.472;19.744;2023-01-31T15:44:27;97733.14;;;1.81;74.51
50302;BME280;36550;50.472;19.744;2023-01-31T15:47:21;97731.02;;;1.77;74.93
50302;BME280;36550;50.472;19.744;2023-01-31T15:50:17;97727.38;;;1.73;75.33
50302;BME280;36550;50.472;19.744;2023-01-31T15:53:13;97720.96;;;1.69;75.41
50302;BME280;36550;50.472;19.744;2023-01-31T15:56:00;97718.54;;;1.65;76.35
50302;BME280;36550;50.472;19.744;2023-01-31T15:58:53;97722.78;;;1.62;76.30
50302;BME280;36550;50.472;19.744;2023-01-31T16:01:38;97727.30;;;1.61;76.58
50302;BME280;36550;50.472;19.744;2023-01-31T16:04:22;97724.45;;;1.58;76.84
50302;BME280;36550;50.472;19.744;2023-01-31T16:07:06;97723.60;;;1.54;77.54
50302;BME280;36550;50.472;19.744;2023-01-31T16:09:50;97723.39;;;1.48;77.65
50302;BME280;36550;50.472;19.744;2023-01-31T16:12:40;97720.02;;;1.42;77.94
50302;BME280;36550;50.472;19.744;2023-01-31T16:15:27;97723.24;;;1.35;78.14
50302;BME280;36550;50.472;19.744;2023-01-31T16:18:11;97723.54;;;1.32;78.54
50302;BME280;36550;50.472;19.744;2023-01-31T16:20:56;97722.83;;;1.30;79.01
50302;BME280;36550;50.472;19.744;2023-01-31T16:23:41;97722.62;;;1.29;78.80
50302;BME280;36550;50.472;19.744;2023-01-31T16:26:31;97720.99;;;1.29;79.23
50302;BME280;36550;50.472;19.744;2023-01-31T16:29:18;97715.86;;;1.29;79.16
50302;BME280;36550;50.472;19.744;2023-01-31T16:32:23;97717.54;;;1.29;79.68
50302;BME280;36550;50.472;19.744;2023-01-31T16:35:28;97723.42;;;1.29;79.92
50302;BME280;36550;50.472;19.744;2023-01-31T16:38:17;97721.11;;;1.28;80.73
50302;BME280;36550;50.472;19.744;2023-01-31T16:41:02;97722.98;;;1.26;80.56
50302;BME280;36550;50.472;19.744;2023-01-31T16:43:50;97721.26;;;1.24;80.86
50302;BME280;36550;50.472;19.744;2023-01-31T16:46:39;97722.94;;;1.23;81.02
50302;BME280;36550;50.472;19.744;2023-01-31T16:49:35;97721.91;;;1.25;81.32